Time;durP1;ratioP1;P1;durP2;ratioP2;P2;SDS_P1;SDS_P2;PMS_P1;PMS_P2;Temp;Humidity;BMP_temperature;BMP_pressure;BME280_temperature;BME280_humidity;BME280_pressure;Samples;Min_cycle;Max_cycle;Signal;HPM_P1;HPM_P2
2023/03/15 00:01:53;;;;;;;1.67;1.47;;;3.40;98.20;;;;;;5043179;28;20484;-72
2023/03/15 00:04:20;;;;;;;1.60;1.50;;;3.40;98.20;;;;;;5053108;28;20519;-73
2023/03/15 00:06:47;;;;;;;1.60;1.40;;;3.40;98.20;;;;;;5044326;28;20481;-72
2023/03/15 00:09:14;;;;;;;1.70;1.50;;;3.40;98.20;;;;;;5059506;28;20527;-73
2023/03/15 00:11:42;;;;;;;1.63;1.47;;;3.40;98.20;;;;;;5056717;28;20503;-76
2023/03/15 00:14:09;;;;;;;1.70;1.60;;;3.50;98.20;;;;;;5059450;28;20457;-76
2023/03/15 00:16:36;;;;;;;1.60;1.40;;;3.50;98.20;;;;;;5045153;28;20475;-76
2023/03/15 00:19:03;;;;;;;1.60;1.30;;;3.50;98.20;;;;;;5049221;28;20879;-74
2023/03/15 00:21:33;;;;;;;1.60;1.40;;;3.60;98.20;;;;;;5059599;28;20478;-75
2023/03/15 00:24:00;;;;;;;1.60;1.43;;;3.60;98.20;;;;;;5068484;28;20493;-73
2023/03/15 00:26:26;;;;;;;1.60;1.50;;;3.70;98.20;;;;;;5056037;28;20489;-73
2023/03/15 00:28:55;;;;;;;1.60;1.50;;;3.70;98.20;;;;;;5056403;28;20489;-73
2023/03/15 00:31:23;;;;;;;1.80;1.70;;;3.70;98.20;;;;;;5053948;28;20473;-73
2023/03/15 00:33:53;;;;;;;1.60;1.47;;;3.80;98.20;;;;;;5057745;28;20461;-74
2023/03/15 00:36:22;;;;;;;1.63;1.50;;;3.80;98.20;;;;;;5055564;28;20477;-74
2023/03/15 00:38:50;;;;;;;1.60;1.40;;;3.90;98.20;;;;;;5057133;28;20477;-74
2023/03/15 00:41:18;;;;;;;1.70;1.50;;;3.90;98.20;;;;;;5059663;28;20492;-76
2023/03/15 00:43:46;;;;;;;1.60;1.50;;;4.00;98.20;;;;;;5066364;28;20543;-74
2023/03/15 00:46:15;;;;;;;1.60;1.40;;;4.00;98.20;;;;;;5057084;28;20473;-73
2023/03/15 00:48:42;;;;;;;1.67;1.50;;;4.10;98.20;;;;;;5068528;28;20484;-73
2023/03/15 00:51:11;;;;;;;1.70;1.60;;;4.10;98.20;;;;;;5057035;28;20721;-74
2023/03/15 00:53:39;;;;;;;1.60;1.30;;;4.20;98.20;;;;;;5065020;28;20969;-74
2023/03/15 00:56:09;;;;;;;1.60;1.30;;;4.20;98.20;;;;;;5059029;28;20479;-74
2023/03/15 00:58:36;;;;;;;1.63;1.43;;;4.30;98.20;;;;;;5074777;28;20493;-74
2023/03/15 01:01:06;;;;;;;1.60;1.40;;;4.30;98.20;;;;;;5050965;28;20477;-74
2023/03/15 01:03:34;;;;;;;1.60;1.30;;;4.30;98.20;;;;;;5054972;28;20465;-73
2023/03/15 01:06:05;;;;;;;1.60;1.40;;;4.30;98.20;;;;;;5050739;28;20556;-75
2023/03/15 01:08:32;;;;;;;1.60;1.37;;;4.30;98.20;;;;;;5062397;28;20485;-75
2023/03/15 01:11:02;;;;;;;1.60;1.40;;;4.30;98.20;;;;;;5047702;28;20454;-74
2023/03/15 01:13:29;;;;;;;1.60;1.50;;;4.30;98.20;;;;;;5068651;28;20489;-74
2023/03/15 01:15:56;;;;;;;1.60;1.30;;;4.30;98.20;;;;;;5058607;28;20462;-75
2023/03/15 01:18:23;;;;;;;1.60;1.30;;;4.20;98.20;;;;;;5066820;28;20457;-74
2023/03/15 01:20:51;;;;;;;1.60;1.40;;;4.20;98.20;;;;;;5050638;28;20866;-74
2023/03/15 01:23:18;;;;;;;1.60;1.40;;;4.20;98.20;;;;;;5068644;28;20465;-75
2023/03/15 01:25:44;;;;;;;2.40;2.20;;;4.10;98.20;;;;;;5068363;28;20463;-75
2023/03/15 01:28:11;;;;;;;1.60;1.40;;;4.10;98.20;;;;;;5049243;28;20489;-73
2023/03/15 01:30:38;;;;;;;1.60;1.40;;;4.10;98.20;;;;;;5055431;28;20465;-75
2023/03/15 01:33:05;;;;;;;1.60;1.30;;;4.10;98.20;;;;;;5055274;28;20488;-75
2023/03/15 01:35:32;;;;;;;1.60;1.40;;;4.10;98.20;;;;;;5060769;28;20492;-74
2023/03/15 01:38:01;;;;;;;1.60;1.30;;;4.10;98.20;;;;;;5045889;28;20474;-74
2023/03/15 01:40:27;;;;;;;1.60;1.30;;;4.10;98.20;;;;;;5062879;28;20556;-74
2023/03/15 01:43:14;;;;;;;2.30;2.10;;;4.20;98.20;;;;;;5056410;28;21076;-74
2023/03/15 01:46:03;;;;;;;1.60;1.40;;;4.20;98.20;;;;;;5059732;28;20454;-74
2023/03/15 01:48:35;;;;;;;1.70;1.60;;;4.20;98.20;;;;;;5028672;28;20556;-74
2023/03/15 01:51:06;;;;;;;1.60;1.30;;;4.20;98.20;;;;;;5051354;28;20617;-76
2023/03/15 01:53:36;;;;;;;1.60;1.40;;;4.20;98.20;;;;;;5068179;28;20985;-77
2023/03/15 01:56:03;;;;;;;1.60;1.40;;;4.20;98.20;;;;;;5057642;28;20462;-77
2023/03/15 01:58:30;;;;;;;1.60;1.40;;;4.20;98.20;;;;;;5060138;28;20473;-77
2023/03/15 02:00:57;;;;;;;1.60;1.40;;;4.10;98.20;;;;;;5041359;28;20854;-77
2023/03/15 02:03:28;;;;;;;1.60;1.40;;;4.10;98.20;;;;;;5069092;28;20488;-75
2023/03/15 02:06:00;;;;;;;1.60;1.40;;;4.10;98.20;;;;;;5059831;28;20468;-77
2023/03/15 02:08:31;;;;;;;1.60;1.40;;;4.00;98.20;;;;;;5054239;28;20988;-75
2023/03/15 02:11:03;;;;;;;1.60;1.40;;;4.00;98.20;;;;;;5059763;28;20457;-77
2023/03/15 02:13:32;;;;;;;1.60;1.40;;;4.00;98.20;;;;;;5060348;28;21077;-76
2023/03/15 02:15:59;;;;;;;1.60;1.40;;;3.90;98.20;;;;;;5057286;28;21001;-76
2023/03/15 02:18:26;;;;;;;1.60;1.30;;;3.90;98.20;;;;;;5038391;28;20454;-76
2023/03/15 02:21:01;;;;;;;1.63;1.53;;;3.90;98.20;;;;;;5058720;28;20488;-77
2023/03/15 02:23:30;;;;;;;1.60;1.40;;;3.80;98.20;;;;;;5059222;28;20464;-76
2023/03/15 02:26:10;;;;;;;1.70;1.60;;;3.80;98.20;;;;;;5057927;28;20450;-76
2023/03/15 02:28:41;;;;;;;1.60;1.40;;;3.70;98.20;;;;;;5063467;28;20491;-78
2023/03/15 02:31:08;;;;;;;1.60;1.40;;;3.70;98.20;;;;;;5064430;28;20508;-76
2023/03/15 02:33:41;;;;;;;1.60;1.40;;;3.70;98.20;;;;;;5063652;28;20457;-77
2023/03/15 02:36:14;;;;;;;1.70;1.60;;;3.70;98.20;;;;;;5056757;28;20489;-76
2023/03/15 02:38:41;;;;;;;1.60;1.47;;;3.70;98.20;;;;;;5055476;28;20482;-78
2023/03/15 02:41:08;;;;;;;1.60;1.50;;;3.70;98.20;;;;;;5060342;28;20490;-75
2023/03/15 02:43:36;;;;;;;1.60;1.40;;;3.60;98.20;;;;;;5060374;28;20458;-77
2023/03/15 02:46:06;;;;;;;1.60;1.40;;;3.60;98.20;;;;;;5063690;28;20453;-76
2023/03/15 02:48:35;;;;;;;1.60;1.30;;;3.60;98.20;;;;;;5068742;28;20985;-78
2023/03/15 02:51:02;;;;;;;1.60;1.40;;;3.60;98.20;;;;;;5061539;28;20462;-77
2023/03/15 02:53:29;;;;;;;1.60;1.40;;;3.50;98.20;;;;;;5070453;28;20458;-77
2023/03/15 02:55:56;;;;;;;1.60;1.40;;;3.50;98.20;;;;;;5062540;28;20934;-77
2023/03/15 02:58:24;;;;;;;1.60;1.40;;;3.50;98.20;;;;;;5076207;28;21955;-77
2023/03/15 03:00:52;;;;;;;1.60;1.40;;;3.50;98.20;;;;;;5062108;28;20461;-77
2023/03/15 03:03:20;;;;;;;1.60;1.40;;;3.40;98.20;;;;;;5066000;28;21087;-77
2023/03/15 03:05:48;;;;;;;1.60;1.40;;;3.40;98.20;;;;;;5070126;28;20461;-77
2023/03/15 03:08:15;;;;;;;1.60;1.30;;;3.40;98.20;;;;;;5071428;28;20476;-76
2023/03/15 03:10:43;;;;;;;1.70;1.60;;;3.40;98.20;;;;;;5073796;28;20488;-77
2023/03/15 03:13:10;;;;;;;1.60;1.30;;;3.40;98.20;;;;;;5061450;28;20501;-76
2023/03/15 03:15:37;;;;;;;1.60;1.40;;;3.40;98.20;;;;;;5073135;28;20462;-77
2023/03/15 03:18:04;;;;;;;1.70;1.60;;;3.40;98.20;;;;;;5058777;28;20492;-75
2023/03/15 03:20:32;;;;;;;1.60;1.40;;;3.40;98.20;;;;;;5073162;28;20481;-76
2023/03/15 03:23:04;;;;;;;1.63;1.40;;;3.40;98.20;;;;;;5054527;28;20505;-76
2023/03/15 03:25:35;;;;;;;1.60;1.50;;;3.40;98.20;;;;;;5071405;28;20585;-77
2023/03/15 03:28:03;;;;;;;1.60;1.40;;;3.40;98.20;;;;;;5050900;28;20484;-76
2023/03/15 03:30:30;;;;;;;1.60;1.40;;;3.40;98.20;;;;;;5070452;28;20477;-78
2023/03/15 03:32:56;;;;;;;1.80;1.70;;;3.40;98.20;;;;;;5060326;28;20515;-76
2023/03/15 03:35:23;;;;;;;1.60;1.40;;;3.40;98.20;;;;;;5067207;28;20958;-75
2023/03/15 03:37:52;;;;;;;1.63;1.40;;;3.40;98.20;;;;;;5059836;28;20480;-76
2023/03/15 03:40:20;;;;;;;1.63;1.53;;;3.30;98.20;;;;;;5068378;28;20607;-75
2023/03/15 03:42:47;;;;;;;1.60;1.40;;;3.30;98.20;;;;;;5056422;28;21122;-76
2023/03/15 03:45:14;;;;;;;1.60;1.50;;;3.30;98.20;;;;;;5069005;28;21023;-77
2023/03/15 03:47:42;;;;;;;1.63;1.40;;;3.30;98.20;;;;;;5057889;28;20473;-75
2023/03/15 03:50:10;;;;;;;1.60;1.40;;;3.30;98.20;;;;;;5068254;28;20559;-76
2023/03/15 03:52:37;;;;;;;1.60;1.40;;;3.30;98.20;;;;;;5056010;28;20474;-76
2023/03/15 03:55:06;;;;;;;1.60;1.40;;;3.30;98.20;;;;;;5067876;28;20466;-76
2023/03/15 03:57:32;;;;;;;1.60;1.47;;;3.30;98.20;;;;;;5062142;28;20484;-75
2023/03/15 03:59:59;;;;;;;1.60;1.40;;;3.30;98.20;;;;;;5071997;28;20496;-77
2023/03/15 04:02:26;;;;;;;1.60;1.50;;;3.30;98.20;;;;;;5055396;28;20484;-76
2023/03/15 04:04:53;;;;;;;1.60;1.40;;;3.30;98.20;;;;;;5071698;28;20466;-75
2023/03/15 04:07:19;;;;;;;1.60;1.40;;;3.40;98.20;;;;;;5057206;28;21045;-75
2023/03/15 04:09:46;;;;;;;1.60;1.40;;;3.40;98.20;;;;;;5069498;28;20865;-75
2023/03/15 04:12:14;;;;;;;1.60;1.50;;;3.40;98.20;;;;;;5059722;28;20474;-76
2023/03/15 04:14:41;;;;;;;1.60;1.40;;;3.40;98.20;;;;;;5061423;28;20842;-77
2023/03/15 04:17:08;;;;;;;1.60;1.40;;;3.40;98.20;;;;;;5054301;28;20478;-76
2023/03/15 04:19:35;;;;;;;1.60;1.40;;;3.40;98.20;;;;;;5071392;28;20481;-76
2023/03/15 04:22:05;;;;;;;1.60;1.40;;;3.40;98.20;;;;;;5051635;28;20482;-76
2023/03/15 04:24:33;;;;;;;1.60;1.40;;;3.40;98.20;;;;;;5060731;28;20468;-77
2023/03/15 04:26:59;;;;;;;1.60;1.40;;;3.40;98.20;;;;;;5062982;28;20510;-75
2023/03/15 04:29:28;;;;;;;1.60;1.40;;;3.30;98.20;;;;;;5051671;28;20474;-76
2023/03/15 04:32:00;;;;;;;1.67;1.57;;;3.20;98.20;;;;;;5045412;28;20489;-76
2023/03/15 04:34:28;;;;;;;1.63;1.40;;;3.20;98.20;;;;;;5055846;28;20587;-77
2023/03/15 04:36:55;;;;;;;1.60;1.40;;;3.10;98.20;;;;;;5065002;28;20510;-75
2023/03/15 04:39:22;;;;;;;1.60;1.40;;;3.10;98.20;;;;;;5064460;28;20511;-75
2023/03/15 04:41:48;;;;;;;1.60;1.40;;;3.10;98.20;;;;;;5043249;28;20478;-74
2023/03/15 04:44:15;;;;;;;1.63;1.50;;;3.00;98.20;;;;;;5060541;28;21026;-76
2023/03/15 04:46:43;;;;;;;1.60;1.50;;;3.00;98.20;;;;;;5053400;28;20500;-74
2023/03/15 04:49:11;;;;;;;1.60;1.40;;;3.00;98.20;;;;;;5062653;28;20473;-75
2023/03/15 04:51:37;;;;;;;1.63;1.43;;;2.90;98.20;;;;;;5058816;28;20474;-74
2023/03/15 04:54:04;;;;;;;1.67;1.50;;;2.90;98.20;;;;;;5063774;28;20469;-73
2023/03/15 04:56:31;;;;;;;1.60;1.40;;;2.90;98.20;;;;;;5052765;28;20474;-73
2023/03/15 04:58:58;;;;;;;1.70;1.60;;;2.80;98.20;;;;;;5067131;28;20492;-75
2023/03/15 05:01:28;;;;;;;1.67;1.50;;;2.90;98.20;;;;;;5058648;28;20533;-74
2023/03/15 05:03:56;;;;;;;1.60;1.40;;;2.90;98.20;;;;;;5067734;28;20462;-74
2023/03/15 05:06:23;;;;;;;1.70;1.50;;;2.80;98.20;;;;;;5054748;28;20971;-74
2023/03/15 05:08:50;;;;;;;1.63;1.40;;;2.90;98.20;;;;;;5065876;28;20871;-75
2023/03/15 05:11:17;;;;;;;1.60;1.40;;;2.90;98.20;;;;;;5056111;28;20484;-76
2023/03/15 05:13:43;;;;;;;1.67;1.50;;;2.90;98.20;;;;;;5054648;28;20457;-75
2023/03/15 05:16:10;;;;;;;1.60;1.40;;;2.90;98.20;;;;;;5056946;28;20488;-76
2023/03/15 05:18:37;;;;;;;1.60;1.50;;;2.90;98.20;;;;;;5068412;28;20472;-75
2023/03/15 05:21:06;;;;;;;1.70;1.60;;;2.90;98.20;;;;;;5056968;28;20508;-76
2023/03/15 05:23:33;;;;;;;1.60;1.50;;;2.90;98.20;;;;;;5064245;28;20486;-74
2023/03/15 05:26:00;;;;;;;1.63;1.50;;;2.90;98.20;;;;;;5050746;28;20851;-75
2023/03/15 05:28:27;;;;;;;1.70;1.50;;;2.90;98.20;;;;;;5061124;28;20461;-75
2023/03/15 05:30:53;;;;;;;1.60;1.50;;;2.90;98.20;;;;;;5058373;28;20461;-76
2023/03/15 05:33:21;;;;;;;1.67;1.50;;;3.00;98.20;;;;;;5066608;28;20456;-75
2023/03/15 05:35:48;;;;;;;1.60;1.40;;;3.00;98.20;;;;;;5063179;28;20547;-74
2023/03/15 05:38:16;;;;;;;1.60;1.40;;;3.00;98.20;;;;;;5063970;28;20496;-75
2023/03/15 05:40:44;;;;;;;1.63;1.40;;;3.00;98.20;;;;;;5068477;28;20492;-74
2023/03/15 05:43:11;;;;;;;1.70;1.50;;;3.00;98.20;;;;;;5036752;28;20493;-73
2023/03/15 05:45:39;;;;;;;1.60;1.40;;;2.90;98.20;;;;;;5062602;28;20815;-73
2023/03/15 05:48:06;;;;;;;1.63;1.50;;;3.00;98.20;;;;;;5060012;28;20458;-73
2023/03/15 05:50:33;;;;;;;1.60;1.40;;;3.00;98.20;;;;;;5062147;28;20793;-73
2023/03/15 05:53:00;;;;;;;1.70;1.50;;;3.00;98.20;;;;;;5052525;28;20469;-74
2023/03/15 05:55:28;;;;;;;1.70;1.60;;;3.00;98.20;;;;;;5062697;28;20472;-75
2023/03/15 05:57:55;;;;;;;1.60;1.40;;;3.10;98.20;;;;;;5050425;28;20504;-73
2023/03/15 06:00:22;;;;;;;1.60;1.40;;;3.10;98.20;;;;;;5062203;28;20836;-73
2023/03/15 06:02:49;;;;;;;1.70;1.60;;;3.10;98.20;;;;;;5025341;28;20526;-73
2023/03/15 06:05:16;;;;;;;1.60;1.30;;;3.10;98.20;;;;;;5063206;28;20471;-76
2023/03/15 06:07:43;;;;;;;1.60;1.50;;;3.20;98.20;;;;;;5052448;28;20791;-74
2023/03/15 06:10:11;;;;;;;1.70;1.57;;;3.20;98.20;;;;;;5063937;28;20497;-73
2023/03/15 06:12:39;;;;;;;1.60;1.50;;;3.20;98.20;;;;;;5053381;28;20524;-74
2023/03/15 06:15:08;;;;;;;1.60;1.40;;;3.20;98.20;;;;;;5059471;28;20462;-73
2023/03/15 06:17:35;;;;;;;1.60;1.40;;;3.20;98.20;;;;;;5051889;28;20912;-73
2023/03/15 06:20:02;;;;;;;1.60;1.40;;;3.20;98.20;;;;;;5062788;28;20481;-73
2023/03/15 06:22:29;;;;;;;1.60;1.40;;;3.20;98.20;;;;;;5053482;28;20477;-74
2023/03/15 06:24:55;;;;;;;1.83;1.70;;;3.30;98.20;;;;;;5062284;28;20469;-74
2023/03/15 06:27:22;;;;;;;1.63;1.40;;;3.30;98.20;;;;;;5043257;28;20484;-74
2023/03/15 06:29:50;;;;;;;1.60;1.40;;;3.30;98.20;;;;;;5058334;28;20998;-73
2023/03/15 06:32:17;;;;;;;1.60;1.40;;;3.40;98.20;;;;;;5051332;28;20478;-74
2023/03/15 06:34:44;;;;;;;1.60;1.33;;;3.40;98.20;;;;;;5062622;28;20470;-73
2023/03/15 06:37:12;;;;;;;1.60;1.40;;;3.50;98.20;;;;;;5049741;28;20922;-74
2023/03/15 06:39:39;;;;;;;1.60;1.40;;;3.50;98.20;;;;;;5061896;28;20485;-74
2023/03/15 06:42:07;;;;;;;1.60;1.40;;;3.60;98.20;;;;;;5051370;28;20485;-73
2023/03/15 06:44:34;;;;;;;1.60;1.40;;;3.70;98.20;;;;;;5062272;28;20453;-73
2023/03/15 06:47:02;;;;;;;1.70;1.60;;;3.70;98.20;;;;;;5048643;28;20573;-74
2023/03/15 06:49:29;;;;;;;1.60;1.40;;;3.70;98.20;;;;;;5062051;28;20485;-74
2023/03/15 06:51:56;;;;;;;1.60;1.33;;;3.70;98.20;;;;;;5053263;28;21140;-73
2023/03/15 06:54:23;;;;;;;1.60;1.40;;;3.80;98.20;;;;;;5063774;28;20599;-72
2023/03/15 06:56:50;;;;;;;1.60;1.50;;;3.80;98.20;;;;;;5050349;28;20492;-73
2023/03/15 06:59:17;;;;;;;1.60;1.40;;;3.80;98.20;;;;;;5058240;28;20489;-73
2023/03/15 07:01:44;;;;;;;1.60;1.40;;;3.80;98.20;;;;;;5049776;28;20477;-73
2023/03/15 07:04:12;;;;;;;1.63;1.40;;;3.80;98.20;;;;;;5060195;28;20519;-75
2023/03/15 07:06:39;;;;;;;1.60;1.50;;;3.80;98.20;;;;;;5052041;28;20481;-74
2023/03/15 07:09:06;;;;;;;1.60;1.40;;;3.80;98.20;;;;;;5058406;28;20489;-73
2023/03/15 07:11:33;;;;;;;1.70;1.60;;;3.90;98.20;;;;;;5050996;28;20486;-74
2023/03/15 07:14:00;;;;;;;1.70;1.50;;;3.90;98.20;;;;;;5051102;28;20464;-74
2023/03/15 07:16:27;;;;;;;1.60;1.40;;;3.90;98.20;;;;;;5053204;28;20964;-74
2023/03/15 07:18:55;;;;;;;1.60;1.40;;;3.90;98.20;;;;;;5056445;28;20844;-72
2023/03/15 07:21:23;;;;;;;1.60;1.40;;;3.90;98.20;;;;;;5048077;28;20978;-73
2023/03/15 07:24:00;;;;;;;1.60;1.40;;;3.90;98.20;;;;;;5049642;28;21425;-75
2023/03/15 07:26:27;;;;;;;1.60;1.40;;;3.90;98.20;;;;;;5048375;28;20495;-77
2023/03/15 07:28:54;;;;;;;1.60;1.43;;;4.00;98.20;;;;;;5059171;28;20482;-74
2023/03/15 07:31:21;;;;;;;1.60;1.30;;;4.00;98.20;;;;;;5054500;28;20826;-75
2023/03/15 07:33:47;;;;;;;1.60;1.40;;;4.00;98.20;;;;;;5059070;28;20454;-75
2023/03/15 07:36:14;;;;;;;1.70;1.50;;;4.00;98.20;;;;;;5049130;28;20492;-75
2023/03/15 07:38:51;;;;;;;1.60;1.40;;;4.10;98.20;;;;;;5063015;28;20480;-74
2023/03/15 07:41:28;;;;;;;1.60;1.30;;;4.10;98.20;;;;;;5042728;28;20491;-74
2023/03/15 07:43:55;;;;;;;1.60;1.30;;;4.10;98.20;;;;;;5068245;28;20489;-72
2023/03/15 07:46:22;;;;;;;1.60;1.30;;;4.20;98.20;;;;;;5040192;28;20481;-72
2023/03/15 07:48:49;;;;;;;1.60;1.30;;;4.20;98.20;;;;;;5051662;28;20890;-73
2023/03/15 07:51:16;;;;;;;1.70;1.50;;;4.30;98.20;;;;;;5053050;28;20488;-73
2023/03/15 07:53:44;;;;;;;1.60;1.30;;;4.40;98.20;;;;;;5052465;28;20490;-74
2023/03/15 07:56:10;;;;;;;1.60;1.30;;;4.40;98.20;;;;;;5045609;28;20489;-74
2023/03/15 07:58:37;;;;;;;1.60;1.30;;;4.50;98.20;;;;;;5059356;28;20841;-74
2023/03/15 08:01:04;;;;;;;1.70;1.50;;;4.60;98.20;;;;;;5051801;28;20473;-75
2023/03/15 08:03:32;;;;;;;1.60;1.30;;;4.70;98.20;;;;;;5067107;28;21130;-76
2023/03/15 08:05:58;;;;;;;1.63;1.30;;;4.70;98.20;;;;;;5052774;28;20469;-75
2023/03/15 08:08:25;;;;;;;1.60;1.30;;;4.80;98.20;;;;;;5051493;28;21025;-75
2023/03/15 08:10:54;;;;;;;1.60;1.37;;;4.80;98.20;;;;;;5046998;28;20520;-73
2023/03/15 08:13:21;;;;;;;1.60;1.40;;;4.90;98.20;;;;;;5033317;28;20462;-73
2023/03/15 08:15:48;;;;;;;1.60;1.30;;;5.00;98.20;;;;;;5044603;28;20553;-73
2023/03/15 08:18:15;;;;;;;1.60;1.30;;;5.10;98.20;;;;;;5047217;28;20481;-73
2023/03/15 08:20:47;;;;;;;1.60;1.30;;;5.20;98.20;;;;;;5061472;28;20466;-73
2023/03/15 08:23:15;;;;;;;1.60;1.30;;;5.30;98.20;;;;;;5034339;28;20486;-73
2023/03/15 08:25:42;;;;;;;1.73;1.30;;;5.40;98.20;;;;;;5066993;28;20461;-73
2023/03/15 08:28:10;;;;;;;1.60;1.30;;;5.50;98.20;;;;;;5053401;28;20632;-73
2023/03/15 08:30:37;;;;;;;1.60;1.30;;;5.60;98.20;;;;;;5064549;28;20461;-73
2023/03/15 08:33:04;;;;;;;1.60;1.30;;;5.70;98.20;;;;;;5054379;28;20759;-73
2023/03/15 08:35:45;;;;;;;1.60;1.30;;;5.70;98.20;;;;;;5067046;28;20830;-73
2023/03/15 08:38:12;;;;;;;1.60;1.30;;;5.70;98.20;;;;;;5046889;28;20481;-72
2023/03/15 08:40:39;;;;;;;1.60;1.30;;;5.70;98.20;;;;;;5056775;28;20471;-73
2023/03/15 08:43:06;;;;;;;1.60;1.30;;;5.70;98.20;;;;;;5055272;28;20899;-74
2023/03/15 08:45:34;;;;;;;1.60;1.40;;;5.70;98.20;;;;;;5066797;28;20865;-72
2023/03/15 08:48:01;;;;;;;1.67;1.30;;;5.80;98.20;;;;;;5053716;28;20485;-73
2023/03/15 08:50:30;;;;;;;1.60;1.30;;;6.00;98.20;;;;;;5058821;28;20508;-73
2023/03/15 08:52:57;;;;;;;1.60;1.30;;;6.20;98.20;;;;;;5054732;28;20497;-73
2023/03/15 08:55:24;;;;;;;1.60;1.20;;;6.50;98.20;;;;;;5048584;28;20505;-73
2023/03/15 08:57:50;;;;;;;1.60;1.20;;;6.80;98.20;;;;;;5046167;28;20513;-73
2023/03/15 09:00:19;;;;;;;1.60;1.30;;;7.00;98.20;;;;;;5048760;28;20489;-73
2023/03/15 09:02:53;;;;;;;1.60;1.20;;;7.30;98.20;;;;;;5052178;28;20498;-73
2023/03/15 09:05:21;;;;;;;1.60;1.30;;;7.60;98.20;;;;;;5064277;28;20492;-73
2023/03/15 09:07:48;;;;;;;1.60;1.20;;;7.90;98.20;;;;;;5056083;28;20484;-75
2023/03/15 09:10:16;;;;;;;1.60;1.20;;;8.20;98.20;;;;;;5060671;28;20562;-73
2023/03/15 09:12:44;;;;;;;1.60;1.20;;;8.30;98.20;;;;;;5055529;28;20511;-74
2023/03/15 09:15:12;;;;;;;1.60;1.20;;;8.30;98.20;;;;;;5064517;28;20461;-73
2023/03/15 09:17:39;;;;;;;1.60;1.20;;;8.30;98.20;;;;;;5053830;28;20709;-74
2023/03/15 09:20:13;;;;;;;1.60;1.30;;;8.40;98.20;;;;;;5057302;28;20583;-76
2023/03/15 09:22:43;;;;;;;1.60;1.20;;;8.50;98.20;;;;;;5055911;28;20511;-74
2023/03/15 09:25:10;;;;;;;1.60;1.20;;;8.80;98.20;;;;;;5048784;28;20468;-74
2023/03/15 09:27:37;;;;;;;1.60;1.20;;;9.10;98.20;;;;;;5045716;28;20993;-74
2023/03/15 09:30:05;;;;;;;1.60;1.10;;;9.40;98.20;;;;;;5064600;28;20489;-74
2023/03/15 09:32:34;;;;;;;1.60;1.17;;;9.50;98.20;;;;;;5055053;28;20572;-76
2023/03/15 09:35:02;;;;;;;1.60;1.20;;;9.70;98.20;;;;;;5066210;28;20454;-77
2023/03/15 09:37:30;;;;;;;3.63;2.70;;;9.90;98.20;;;;;;5044048;28;20481;-76
2023/03/15 09:39:57;;;;;;;1.60;1.10;;;10.10;98.20;;;;;;5056496;28;20486;-77
2023/03/15 09:42:35;;;;;;;1.60;1.10;;;10.30;98.20;;;;;;5050381;28;20615;-77
2023/03/15 09:45:12;;;;;;;1.60;1.20;;;10.50;98.20;;;;;;5049359;28;21115;-75
2023/03/15 09:47:48;;;;;;;1.60;1.10;;;10.60;97.20;;;;;;5041347;28;20485;-75
2023/03/15 09:50:21;;;;;;;1.60;1.10;;;10.60;97.70;;;;;;5045831;28;20860;-76
2023/03/15 09:52:54;;;;;;;1.60;1.10;;;10.70;97.50;;;;;;5039535;28;20881;-75
2023/03/15 09:55:24;;;;;;;1.57;1.00;;;10.80;98.00;;;;;;5058648;28;20461;-75
2023/03/15 09:57:54;;;;;;;1.70;1.10;;;11.00;97.60;;;;;;5044550;28;20990;-74
2023/03/15 10:00:26;;;;;;;1.60;1.10;;;11.10;97.80;;;;;;5064693;28;20941;-74
2023/03/15 10:02:58;;;;;;;1.60;1.10;;;11.00;95.90;;;;;;5054738;28;20851;-75
2023/03/15 10:05:32;;;;;;;1.57;1.00;;;10.90;95.80;;;;;;5057706;28;20472;-74
2023/03/15 10:08:00;;;;;;;1.60;1.20;;;10.80;96.10;;;;;;5042880;28;20488;-74
2023/03/15 10:10:33;;;;;;;1.57;1.10;;;11.00;96.00;;;;;;5058758;28;20496;-75
2023/03/15 10:13:11;;;;;;;1.60;1.10;;;11.20;96.00;;;;;;5058374;28;20924;-74
2023/03/15 10:15:47;;;;;;;1.57;1.07;;;11.50;94.20;;;;;;5061282;28;20472;-74
2023/03/15 10:18:26;;;;;;;1.50;1.00;;;11.60;93.70;;;;;;5053017;28;20489;-74
2023/03/15 10:20:59;;;;;;;1.60;1.10;;;11.70;94.60;;;;;;5045920;28;20457;-74
2023/03/15 10:23:36;;;;;;;1.60;1.13;;;12.00;93.80;;;;;;5052681;28;20855;-75
2023/03/15 10:26:07;;;;;;;1.50;1.00;;;12.20;92.40;;;;;;5060311;28;20471;-74
2023/03/15 10:28:36;;;;;;;1.57;1.10;;;12.10;88.00;;;;;;5051854;28;20486;-74
2023/03/15 10:31:12;;;;;;;1.60;1.10;;;12.10;89.10;;;;;;5046164;28;20624;-74
2023/03/15 10:33:40;;;;;;;1.60;1.00;;;11.90;89.40;;;;;;5052165;28;20453;-75
2023/03/15 10:36:14;;;;;;;1.60;1.10;;;12.00;91.30;;;;;;5046378;28;20480;-75
2023/03/15 10:38:43;;;;;;;1.50;1.10;;;12.20;89.40;;;;;;5057712;28;20487;-74
2023/03/15 10:41:12;;;;;;;1.50;1.00;;;12.40;91.60;;;;;;5049172;28;20485;-72
2023/03/15 10:43:40;;;;;;;1.57;1.00;;;12.60;89.10;;;;;;5048155;28;20584;-75
2023/03/15 10:46:10;;;;;;;1.57;1.07;;;12.70;89.00;;;;;;5054496;28;20501;-74
2023/03/15 10:48:39;;;;;;;1.53;1.00;;;13.00;89.40;;;;;;5052430;28;21199;-75
2023/03/15 10:51:14;;;;;;;1.50;1.00;;;13.00;85.60;;;;;;5042022;28;20580;-74
2023/03/15 10:53:53;;;;;;;1.50;1.00;;;13.10;85.70;;;;;;5037411;28;20457;-72
2023/03/15 10:56:24;;;;;;;1.57;1.00;;;13.30;86.20;;;;;;5051427;28;20483;-75
2023/03/15 10:58:53;;;;;;;1.60;1.00;;;13.50;85.30;;;;;;5056998;28;20561;-74
2023/03/15 11:01:24;;;;;;;1.60;1.10;;;13.60;84.20;;;;;;5051842;28;20489;-74
2023/03/15 11:04:02;;;;;;;1.57;1.00;;;13.70;85.70;;;;;;5059703;28;20882;-74
2023/03/15 11:06:29;;;;;;;1.60;1.00;;;13.80;83.40;;;;;;5048933;28;20481;-74
2023/03/15 11:09:10;;;;;;;1.57;1.00;;;13.90;84.40;;;;;;5063276;28;20485;-76
2023/03/15 11:12:00;;;;;;;1.60;1.07;;;14.00;83.90;;;;;;5052835;28;20488;-75
2023/03/15 11:14:33;;;;;;;1.53;1.00;;;14.10;80.90;;;;;;5052596;28;20461;-74
2023/03/15 11:17:00;;;;;;;1.53;1.00;;;14.20;82.40;;;;;;5046879;28;20477;-74
2023/03/15 11:19:30;;;;;;;1.53;1.00;;;14.20;80.10;;;;;;5063908;28;20917;-72
2023/03/15 11:22:01;;;;;;;1.50;0.90;;;14.30;81.80;;;;;;5030430;28;20471;-72
2023/03/15 11:24:31;;;;;;;1.57;1.00;;;14.50;82.10;;;;;;5046813;28;21017;-75
2023/03/15 11:27:00;;;;;;;1.50;0.90;;;14.70;80.40;;;;;;5046993;28;20478;-76
2023/03/15 11:29:30;;;;;;;1.60;1.00;;;14.70;79.40;;;;;;5058052;28;20493;-75
2023/03/15 11:31:59;;;;;;;1.57;1.00;;;14.50;82.10;;;;;;5057535;28;20485;-75
2023/03/15 11:34:36;;;;;;;1.57;1.00;;;14.40;79.60;;;;;;5064927;28;20461;-76
2023/03/15 11:37:11;;;;;;;1.70;1.50;;;14.10;81.80;;;;;;5052003;28;20485;-74
2023/03/15 11:39:44;;;;;;;1.57;1.00;;;13.90;81.60;;;;;;5058693;28;20890;-75
2023/03/15 11:42:16;;;;;;;1.53;1.00;;;13.40;78.50;;;;;;5048029;28;20470;-75
2023/03/15 11:44:46;;;;;;;1.57;1.00;;;13.20;81.70;;;;;;5057023;28;20482;-74
2023/03/15 11:47:21;;;;;;;1.60;1.10;;;13.10;82.60;;;;;;5045705;28;20983;-75
2023/03/15 11:49:51;;;;;;;1.60;1.00;;;12.90;81.20;;;;;;5059607;28;20903;-74
2023/03/15 11:52:19;;;;;;;1.57;1.00;;;12.60;81.40;;;;;;5049875;28;20750;-74
2023/03/15 11:54:48;;;;;;;1.50;1.10;;;12.60;83.30;;;;;;5065054;28;20475;-73
2023/03/15 11:57:38;;;;;;;1.50;1.00;;;12.80;82.90;;;;;;5054537;28;20481;-73
2023/03/15 12:00:47;;;;;;;1.50;0.97;;;13.00;82.80;;;;;;5063777;28;20500;-73
2023/03/15 12:03:33;;;;;;;1.60;1.07;;;13.20;82.10;;;;;;5054940;28;20477;-72
2023/03/15 12:06:04;;;;;;;1.50;0.90;;;13.40;80.30;;;;;;5054892;28;20487;-72
2023/03/15 12:08:47;;;;;;;1.53;0.93;;;13.40;79.60;;;;;;5062794;28;20464;-72
2023/03/15 12:11:39;;;;;;;1.57;1.00;;;13.50;81.70;;;;;;5054544;28;20479;-74
2023/03/15 12:14:24;;;;;;;1.57;1.00;;;13.80;78.10;;;;;;5061318;28;20842;-75
2023/03/15 12:16:51;;;;;;;1.60;1.10;;;14.00;78.10;;;;;;5048878;28;20491;-77
2023/03/15 12:19:20;;;;;;;1.60;1.10;;;14.00;77.90;;;;;;5064430;28;20485;-77
2023/03/15 12:21:50;;;;;;;1.57;0.97;;;14.10;77.90;;;;;;5053169;28;20508;-76
2023/03/15 12:24:23;;;;;;;1.53;1.00;;;14.30;80.00;;;;;;5060624;28;20493;-73
2023/03/15 12:27:00;;;;;;;1.53;0.90;;;14.20;76.60;;;;;;5054918;28;20534;-73
2023/03/15 12:29:31;;;;;;;1.57;1.00;;;13.90;77.20;;;;;;5063814;28;21002;-73
2023/03/15 12:32:04;;;;;;;1.60;1.00;;;13.50;77.70;;;;;;5051118;28;20487;-73
2023/03/15 12:34:42;;;;;;;1.57;1.00;;;13.30;79.60;;;;;;5064297;28;20815;-73
2023/03/15 12:37:13;;;;;;;1.57;1.00;;;13.20;80.20;;;;;;5038741;28;20473;-73
2023/03/15 12:39:44;;;;;;;1.53;1.00;;;13.00;80.10;;;;;;5054737;28;20858;-73
2023/03/15 12:42:47;;;;;;;1.53;1.00;;;13.10;79.50;;;;;;5049879;28;20488;-73
2023/03/15 12:45:46;;;;;;;1.50;1.00;;;13.30;79.40;;;;;;5034446;28;20499;-73
2023/03/15 12:48:24;;;;;;;1.53;1.00;;;13.50;77.70;;;;;;4959673;28;20478;-73
2023/03/15 12:50:54;;;;;;;1.60;1.03;;;13.60;78.90;;;;;;5040279;28;20473;-73
2023/03/15 12:53:27;;;;;;;1.53;1.00;;;13.60;76.90;;;;;;5056041;28;20457;-72
2023/03/15 12:55:56;;;;;;;1.60;1.03;;;13.50;77.70;;;;;;5053735;28;20569;-72
2023/03/15 12:58:28;;;;;;;1.53;0.90;;;13.60;79.40;;;;;;5056269;28;20457;-72
2023/03/15 13:01:07;;;;;;;1.50;0.90;;;13.70;79.00;;;;;;5056517;28;20468;-72
2023/03/15 13:03:35;;;;;;;1.50;1.00;;;13.80;78.50;;;;;;5061333;28;20458;-73
2023/03/15 13:06:11;;;;;;;1.60;1.00;;;14.00;79.90;;;;;;5053582;28;20944;-72
2023/03/15 13:08:46;;;;;;;1.50;0.90;;;14.20;77.10;;;;;;5057897;28;20478;-73